createdAt,value
2022-12-19T00:00:41.079Z,102332.72
2022-12-19T00:03:12.721Z,102320.56
2022-12-19T00:05:44.634Z,102320.81
2022-12-19T00:08:17.744Z,102310.09
2022-12-19T00:10:49.872Z,102301.25
2022-12-19T00:13:24.500Z,102298.56
2022-12-19T00:15:56.059Z,102297.41
2022-12-19T00:18:27.610Z,102295.72
2022-12-19T00:20:59.187Z,102298.16
2022-12-19T00:23:31.071Z,102301.84
2022-12-19T00:26:02.622Z,102304.28
2022-12-19T00:28:34.906Z,102291.94
2022-12-19T00:31:06.462Z,102291.00
2022-12-19T00:33:42.642Z,102288.34
2022-12-19T00:36:15.289Z,102284.75
2022-12-19T00:38:52.951Z,102286.19
2022-12-19T00:41:24.478Z,102290.38
2022-12-19T00:43:56.406Z,102291.97
2022-12-19T00:46:27.981Z,102282.25
2022-12-19T00:48:59.826Z,102279.41
2022-12-19T00:51:31.317Z,102266.81
2022-12-19T00:54:04.298Z,102257.28
2022-12-19T00:56:38.546Z,102257.03
2022-12-19T00:59:10.691Z,102260.47
2022-12-19T01:01:42.777Z,102258.63
2022-12-19T01:04:31.257Z,102250.66
2022-12-19T01:07:05.788Z,102246.22
2022-12-19T01:09:37.696Z,102254.09
2022-12-19T01:12:27.737Z,102252.25
2022-12-19T01:15:04.324Z,102235.75
2022-12-19T01:17:44.328Z,102223.59
2022-12-19T01:20:16.527Z,102227.78
2022-12-19T01:22:49.153Z,102222.91
2022-12-19T01:25:21.035Z,102222.91
2022-12-19T01:27:52.532Z,102216.28
2022-12-19T01:30:24.307Z,102210.16
2022-12-19T01:32:56.136Z,102196.41
2022-12-19T01:35:27.960Z,102199.84
2022-12-19T01:38:08.308Z,102182.41
2022-12-19T01:40:40.724Z,102163.44
2022-12-19T01:43:12.231Z,102163.28
2022-12-19T01:45:46.083Z,102171.59
2022-12-19T01:48:18.320Z,102177.31
2022-12-19T01:50:56.948Z,102161.72
2022-12-19T01:53:33.006Z,102160.19
2022-12-19T01:56:08.043Z,102153.06
2022-12-19T01:58:39.579Z,102149.56
2022-12-19T02:01:11.482Z,102142.25
2022-12-19T02:03:43.029Z,102134.53
2022-12-19T02:06:15.048Z,102131.00
2022-12-19T02:08:46.567Z,102137.63
2022-12-19T02:11:18.494Z,102132.44
2022-12-19T02:13:49.995Z,102134.19
2022-12-19T02:16:22.200Z,102125.31
2022-12-19T02:18:56.478Z,102125.31
2022-12-19T02:21:27.988Z,102128.75
2022-12-19T02:23:59.780Z,102129.50
2022-12-19T02:26:31.296Z,102126.13
2022-12-19T02:29:03.025Z,102121.09
2022-12-19T02:31:34.606Z,102124.63
2022-12-19T02:34:06.530Z,102116.81
2022-12-19T02:36:38.945Z,102122.94
2022-12-19T02:39:12.423Z,102110.78
2022-12-19T02:41:43.979Z,102106.69
2022-12-19T02:44:15.895Z,102107.59
2022-12-19T02:46:47.449Z,102107.69
2022-12-19T02:49:23.947Z,102109.38
2022-12-19T02:52:02.707Z,102113.47
2022-12-19T02:54:34.837Z,102111.03
2022-12-19T02:57:06.384Z,102108.38
2022-12-19T02:59:38.249Z,102106.69
2022-12-19T03:02:09.913Z,102107.69
2022-12-19T03:04:41.897Z,102097.22
2022-12-19T03:07:13.419Z,102090.25
2022-12-19T03:09:45.470Z,102096.13
2022-12-19T03:12:17.739Z,102100.31
2022-12-19T03:14:49.402Z,102095.94
2022-12-19T03:17:20.921Z,102085.44
2022-12-19T03:19:52.820Z,102087.03
2022-12-19T03:22:24.407Z,102087.22
2022-12-19T03:24:56.293Z,102093.66
2022-12-19T03:27:27.808Z,102093.56
2022-12-19T03:29:59.735Z,102094.97
2022-12-19T03:32:31.251Z,102085.59
2022-12-19T03:35:03.103Z,102070.16
2022-12-19T03:37:34.610Z,102075.63
2022-12-19T03:40:06.431Z,102080.66
2022-12-19T03:42:56.752Z,102079.22
2022-12-19T03:45:28.710Z,102088.38
2022-12-19T03:48:00.257Z,102087.53
2022-12-19T03:50:32.075Z,102082.16
2022-12-19T03:53:03.588Z,102076.78
2022-12-19T03:55:35.125Z,102079.47
2022-12-19T03:58:06.688Z,102071.66
2022-12-19T04:00:38.606Z,102075.09
2022-12-19T04:03:10.190Z,102068.97
2022-12-19T04:05:42.070Z,102068.97
2022-12-19T04:08:13.714Z,102073.06
2022-12-19T04:10:45.609Z,102062.00
2022-12-19T04:13:17.152Z,102050.66
2022-12-19T04:15:48.929Z,102051.84
2022-12-19T04:18:20.437Z,102057.81
2022-12-19T04:20:52.371Z,102057.72
2022-12-19T04:23:23.889Z,102058.56
2022-12-19T04:25:55.742Z,102051.50
2022-12-19T04:28:27.249Z,102060.06
2022-12-19T04:30:59.207Z,102069.72
2022-12-19T04:33:30.746Z,102073.00
2022-12-19T04:36:02.646Z,102081.66
2022-12-19T04:38:34.154Z,102079.97
2022-12-19T04:41:06.056Z,102075.44
2022-12-19T04:43:37.607Z,102058.22
2022-12-19T04:46:09.534Z,102053.78
2022-12-19T04:48:41.088Z,102051.28
2022-12-19T04:51:12.925Z,102052.34
2022-12-19T04:53:44.471Z,102046.91
2022-12-19T04:56:16.292Z,102043.56
2022-12-19T04:58:47.802Z,102026.19
2022-12-19T05:01:19.737Z,102020.19
2022-12-19T05:03:55.745Z,102024.75
2022-12-19T05:06:29.526Z,102016.00
2022-12-19T05:09:01.062Z,102020.56
2022-12-19T05:11:32.603Z,102037.00
2022-12-19T05:14:04.125Z,102050.56
2022-12-19T05:16:36.397Z,102029.63
2022-12-19T05:19:07.924Z,102022.78
2022-12-19T05:21:39.473Z,102026.19
2022-12-19T05:24:10.984Z,102020.88
2022-12-19T05:26:42.893Z,102020.88
2022-12-19T05:29:14.446Z,102025.91
2022-12-19T05:31:46.038Z,102025.81
2022-12-19T05:34:17.546Z,102014.31
2022-12-19T05:36:49.485Z,102002.13
2022-12-19T05:39:21.003Z,102018.13
2022-12-19T05:41:52.876Z,102016.44
2022-12-19T05:44:24.389Z,102014.41
2022-12-19T05:46:56.150Z,102015.81
2022-12-19T05:49:27.725Z,102006.25
2022-12-19T05:51:59.747Z,102002.44
2022-12-19T05:54:31.354Z,102002.94
2022-12-19T05:57:02.931Z,101992.31
2022-12-19T05:59:34.485Z,101991.59
2022-12-19T06:02:06.076Z,101979.41
2022-12-19T06:04:37.693Z,101989.34
2022-12-19T06:07:09.206Z,101984.13
2022-12-19T06:09:40.708Z,101989.53
2022-12-19T06:12:12.258Z,101978.53
2022-12-19T06:14:43.789Z,101975.28
2022-12-19T06:17:15.686Z,101970.19
2022-12-19T06:19:47.252Z,101964.78
2022-12-19T06:22:18.769Z,101958.00
2022-12-19T06:24:50.701Z,101960.88
2022-12-19T06:27:22.213Z,101954.16
2022-12-19T06:29:53.713Z,101955.19
2022-12-19T06:32:25.692Z,101943.34
2022-12-19T06:35:04.963Z,101941.13
2022-12-19T06:37:39.534Z,101935.72
2022-12-19T06:40:31.596Z,101937.41
2022-12-19T06:43:03.150Z,101936.19
2022-12-19T06:45:34.934Z,101941.19
2022-12-19T06:48:06.515Z,101942.66
2022-12-19T06:50:38.484Z,101936.63
2022-12-19T06:53:10.027Z,101933.09
2022-12-19T06:55:42.397Z,101933.09
2022-12-19T06:58:13.937Z,101944.72
2022-12-19T07:00:45.978Z,101948.69
2022-12-19T07:03:17.523Z,101954.66
2022-12-19T07:05:49.301Z,101959.47
2022-12-19T07:08:20.823Z,101968.66
2022-12-19T07:10:54.058Z,101964.63
2022-12-19T07:13:25.583Z,101952.53
2022-12-19T07:15:57.519Z,101953.72
2022-12-19T07:18:29.111Z,101948.41
2022-12-19T07:21:01.016Z,101948.19
2022-12-19T07:23:32.523Z,101944.34
2022-12-19T07:26:04.343Z,101947.78
2022-12-19T07:28:35.879Z,101942.78
2022-12-19T07:31:07.760Z,101948.53
2022-12-19T07:33:39.274Z,101938.94
2022-12-19T07:36:11.539Z,101951.66
2022-12-19T07:38:43.063Z,101941.88
2022-12-19T07:41:14.916Z,101936.47
2022-12-19T07:43:47.279Z,101941.41
2022-12-19T07:46:18.827Z,101952.78
2022-12-19T07:48:50.727Z,101948.81
2022-12-19T07:51:22.616Z,101953.59
2022-12-19T07:53:54.115Z,101944.00
2022-12-19T07:56:25.647Z,101927.72
2022-12-19T07:58:57.249Z,101926.06
2022-12-19T08:01:29.872Z,101925.13
2022-12-19T08:04:01.585Z,101930.31
2022-12-19T08:06:37.660Z,101934.59
2022-12-19T08:09:12.305Z,101929.41
2022-12-19T08:11:44.385Z,101936.19
2022-12-19T08:14:15.980Z,101928.97
2022-12-19T08:17:18.642Z,101922.06
2022-12-19T08:19:39.172Z,101921.63
2022-12-19T08:22:10.695Z,101913.47
2022-12-19T08:24:42.501Z,101913.25
2022-12-19T08:27:14.083Z,101911.69
2022-12-19T08:29:45.597Z,101910.25
2022-12-19T08:32:21.299Z,101898.50
2022-12-19T08:34:54.709Z,101898.13
2022-12-19T08:37:26.822Z,101908.75
2022-12-19T08:39:58.346Z,101915.03
2022-12-19T08:42:29.869Z,101914.63
2022-12-19T08:45:01.425Z,101907.94
2022-12-19T08:47:33.292Z,101907.28
2022-12-19T08:50:04.828Z,101891.41
2022-12-19T08:52:36.640Z,101887.81
2022-12-19T08:55:10.034Z,101889.44
2022-12-19T08:57:41.910Z,101873.63
2022-12-19T09:00:13.418Z,101869.78
2022-12-19T09:02:46.448Z,101869.34
2022-12-19T09:06:05.216Z,101857.03
2022-12-19T09:08:10.030Z,101857.19
2022-12-19T09:10:41.593Z,101852.75
2022-12-19T09:13:13.509Z,101850.22
2022-12-19T09:15:45.080Z,101845.41
2022-12-19T09:18:16.733Z,101838.75
2022-12-19T09:20:48.252Z,101833.41
2022-12-19T09:23:19.896Z,101837.81
2022-12-19T09:25:51.395Z,101831.41
2022-12-19T09:28:27.684Z,101832.59
2022-12-19T09:30:59.811Z,101828.59
2022-12-19T09:33:31.468Z,101833.34
2022-12-19T09:36:03.133Z,101823.00
2022-12-19T09:38:36.586Z,101815.38
2022-12-19T09:41:10.154Z,101811.44
2022-12-19T09:43:41.730Z,101806.22
2022-12-19T09:46:13.337Z,101799.31
2022-12-19T09:48:49.343Z,101796.81
2022-12-19T09:51:24.073Z,101801.81
2022-12-19T09:53:55.578Z,101800.88
2022-12-19T09:56:27.484Z,101785.50
2022-12-19T09:58:59.095Z,101784.63
2022-12-19T10:01:30.807Z,101778.38
2022-12-19T10:04:02.534Z,101773.31
2022-12-19T10:07:14.527Z,101763.19
2022-12-19T10:10:19.092Z,101759.91
2022-12-19T10:12:44.449Z,101757.88
2022-12-19T10:15:09.098Z,101762.25
2022-12-19T10:17:41.096Z,101759.47
2022-12-19T10:20:12.658Z,101760.38
2022-12-19T10:22:44.880Z,101746.16
2022-12-19T10:25:16.404Z,101744.00
2022-12-19T10:27:58.399Z,101751.47
2022-12-19T10:30:31.783Z,101736.06
2022-12-19T10:33:04.020Z,101595.47
2022-12-19T10:35:35.594Z,101732.34
2022-12-19T10:38:08.404Z,101728.00
2022-12-19T10:40:40.730Z,101729.53
2022-12-19T10:43:19.101Z,101720.13
2022-12-19T10:45:54.564Z,101712.38
2022-12-19T10:48:30.488Z,101705.34
2022-12-19T10:51:06.523Z,101705.75
2022-12-19T10:53:38.961Z,101696.00
2022-12-19T10:56:10.493Z,101695.84
2022-12-19T10:58:42.355Z,101692.75
2022-12-19T11:01:14.012Z,101686.75
2022-12-19T11:03:46.524Z,101683.88
2022-12-19T11:06:18.352Z,101672.25
2022-12-19T11:08:50.389Z,101664.84
2022-12-19T11:14:23.869Z,101663.31
2022-12-19T11:19:00.115Z,101653.00
2022-12-19T11:24:23.247Z,101652.03
2022-12-19T11:29:27.341Z,101637.94
2022-12-19T11:29:31.659Z,101625.47
2022-12-19T11:29:54.826Z,101641.00
2022-12-19T11:30:43.172Z,101627.03
2022-12-19T11:34:16.952Z,101625.53
2022-12-19T11:36:48.786Z,101632.78
2022-12-19T11:39:21.299Z,101618.59
2022-12-19T11:41:53.870Z,101628.41
2022-12-19T11:44:26.159Z,101609.56
2022-12-19T11:46:57.912Z,101617.22
2022-12-19T11:49:31.254Z,101606.94
2022-12-19T11:52:03.425Z,101608.47
2022-12-19T11:54:34.977Z,101610.28
2022-12-19T11:57:06.835Z,101597.16
2022-12-19T11:59:38.501Z,101594.53
2022-12-19T12:02:10.061Z,101587.19
2022-12-19T12:04:41.731Z,101587.38
2022-12-19T12:07:28.372Z,101584.75
2022-12-19T12:14:45.494Z,101584.47
2022-12-19T12:20:41.735Z,101587.09
2022-12-19T12:27:26.783Z,101580.06
2022-12-19T12:31:16.818Z,101572.88
2022-12-19T12:31:21.384Z,101572.88
2022-12-19T12:31:27.785Z,101572.88
2022-12-19T12:31:50.443Z,101562.50
2022-12-19T12:31:53.907Z,101565.13
2022-12-19T12:35:46.562Z,101561.69
2022-12-19T12:37:52.552Z,101561.69
2022-12-19T12:38:43.590Z,101553.53
2022-12-19T12:41:15.370Z,101554.78
2022-12-19T12:43:47.567Z,101548.28
2022-12-19T12:46:19.117Z,101548.56
2022-12-19T12:48:51.060Z,101550.78
2022-12-19T12:51:22.554Z,101546.50
2022-12-19T12:53:54.440Z,101539.41
2022-12-19T12:56:25.942Z,101546.50
2022-12-19T12:58:57.810Z,101537.91
2022-12-19T13:01:29.469Z,101537.50
2022-12-19T13:04:01.438Z,101538.88
2022-12-19T13:06:32.946Z,101536.66
2022-12-19T13:09:04.815Z,101536.69
2022-12-19T13:11:55.177Z,101536.00
2022-12-19T13:14:27.028Z,101536.81
2022-12-19T13:16:58.669Z,101531.44
2022-12-19T13:19:30.513Z,101527.28
2022-12-19T13:22:02.190Z,101514.56
2022-12-19T13:24:33.696Z,101522.03
2022-12-19T13:27:05.593Z,101507.38
2022-12-19T13:29:37.096Z,101512.63
2022-12-19T13:32:08.972Z,101515.97
2022-12-19T13:34:40.561Z,101507.09
2022-12-19T13:39:54.296Z,101500.91
2022-12-19T13:40:12.075Z,101505.44
2022-12-19T13:43:10.725Z,101497.16
2022-12-19T13:45:42.866Z,101502.13
2022-12-19T13:48:14.801Z,101495.38
2022-12-19T13:50:47.992Z,101505.44
2022-12-19T13:53:21.240Z,101502.41
2022-12-19T13:55:52.880Z,101503.66
2022-12-19T13:58:29.170Z,101495.50
2022-12-19T14:01:01.368Z,101494.53
2022-12-19T14:03:33.541Z,101488.03
2022-12-19T14:06:17.898Z,101483.31
2022-12-19T14:10:23.968Z,101468.53
2022-12-19T14:12:28.103Z,101474.19
2022-12-19T14:15:02.181Z,101472.13
2022-12-19T14:17:44.757Z,101479.75
2022-12-19T14:20:57.464Z,101483.06
2022-12-19T14:23:08.231Z,101484.59
2022-12-19T14:28:15.430Z,101480.16
2022-12-19T14:28:31.660Z,101479.19
2022-12-19T14:31:09.006Z,101474.47
2022-12-19T14:34:04.307Z,101471.84
2022-12-19T14:36:32.918Z,101463.69
2022-12-19T14:39:24.040Z,101467.44
2022-12-19T14:42:15.192Z,101476.69
2022-12-19T14:52:25.447Z,101462.44
2022-12-19T14:54:06.172Z,101471.16
2022-12-19T14:54:07.298Z,101466.44
2022-12-19T14:54:44.282Z,101467.13
2022-12-19T14:59:04.999Z,101466.00
2022-12-19T15:01:37.128Z,101460.47
2022-12-19T15:04:52.006Z,101463.38
2022-12-19T15:07:07.551Z,101457.41
2022-12-19T15:11:07.283Z,101452.97
2022-12-19T15:14:51.500Z,101454.38
2022-12-19T15:15:53.067Z,101443.88
2022-12-19T15:18:25.163Z,101447.03
2022-12-19T15:20:59.217Z,101445.09
2022-12-19T15:23:30.864Z,101438.03
2022-12-19T15:26:04.386Z,101443.00
2022-12-19T15:28:36.582Z,101442.72
2022-12-19T15:31:08.291Z,101440.75
2022-12-19T15:33:53.808Z,101453.63
2022-12-19T15:36:31.709Z,101453.31
2022-12-19T15:39:04.087Z,101452.06
2022-12-19T15:41:35.690Z,101442.22
2022-12-19T15:44:07.403Z,101439.88
2022-12-19T15:46:46.410Z,101441.94
2022-12-19T15:49:20.149Z,101440.00
2022-12-19T15:51:51.652Z,101440.66
2022-12-19T15:54:48.751Z,101439.72
2022-12-19T15:57:15.416Z,101443.03
2022-12-19T15:59:47.337Z,101434.72
2022-12-19T16:02:19.091Z,101429.16
2022-12-19T16:04:51.393Z,101431.94
2022-12-19T16:07:23.047Z,101427.75
2022-12-19T16:09:55.750Z,101419.84
2022-12-19T16:12:27.386Z,101434.22
2022-12-19T16:14:58.908Z,101424.38
2022-12-19T16:17:30.396Z,101416.47
2022-12-19T16:20:01.989Z,101422.25
2022-12-19T16:22:33.567Z,101415.88
2022-12-19T16:25:06.250Z,101422.13
2022-12-19T16:27:37.768Z,101416.56
2022-12-19T16:30:11.157Z,101429.56
2022-12-19T16:32:46.620Z,101424.72
2022-12-19T16:35:34.361Z,101417.50
2022-12-19T16:38:10.130Z,101413.59
2022-12-19T16:40:41.659Z,101415.09
2022-12-19T16:43:13.531Z,101408.69
2022-12-19T16:45:45.059Z,101408.94
2022-12-19T16:48:16.958Z,101410.28
2022-12-19T16:50:48.512Z,101407.50
2022-12-19T16:53:20.033Z,101406.66
2022-12-19T16:55:51.562Z,101414.13
2022-12-19T16:58:28.825Z,101418.56
2022-12-19T17:01:01.060Z,101409.38
2022-12-19T17:03:33.849Z,101417.78
2022-12-19T17:06:05.647Z,101418.50
2022-12-19T17:08:37.174Z,101415.16
2022-12-19T17:11:08.749Z,101405.34
2022-12-19T17:13:40.782Z,101401.88
2022-12-19T17:16:12.432Z,101406.00
2022-12-19T17:18:43.971Z,101405.41
2022-12-19T17:21:15.599Z,101404.56
2022-12-19T17:23:47.483Z,101399.31
2022-12-19T17:26:19.055Z,101393.22
2022-12-19T17:28:50.664Z,101396.84
2022-12-19T17:31:22.421Z,101394.56
2022-12-19T17:33:54.504Z,101401.47
2022-12-19T17:36:29.864Z,101393.44
2022-12-19T17:39:04.897Z,101404.47
2022-12-19T17:41:36.368Z,101405.16
2022-12-19T17:44:08.511Z,101395.31
2022-12-19T17:46:40.134Z,101388.75
2022-12-19T17:49:11.993Z,101395.66
2022-12-19T17:51:43.490Z,101396.66
2022-12-19T17:54:15.421Z,101392.72
2022-12-19T17:56:46.905Z,101389.09
2022-12-19T17:59:18.576Z,101387.16
2022-12-19T18:01:50.275Z,101396.53
2022-12-19T18:04:22.229Z,101395.56
2022-12-19T18:06:53.778Z,101391.28
2022-12-19T18:09:25.666Z,101398.75
2022-12-19T18:11:57.234Z,101405.66
2022-12-19T18:14:29.250Z,101400.41
2022-12-19T18:17:00.937Z,101393.84
2022-12-19T18:19:32.516Z,101386.09
2022-12-19T18:22:04.040Z,101393.69
2022-12-19T18:24:35.936Z,101392.53
2022-12-19T18:27:07.504Z,101397.66
2022-12-19T18:29:39.079Z,101393.06
2022-12-19T18:32:10.620Z,101388.31
2022-12-19T18:34:42.417Z,101380.56
2022-12-19T18:37:13.958Z,101381.75
2022-12-19T18:39:45.854Z,101379.63
2022-12-19T18:42:17.403Z,101384.88
2022-12-19T18:44:49.372Z,101388.34
2022-12-19T18:47:21.427Z,101383.91
2022-12-19T18:49:53.377Z,101383.59
2022-12-19T18:52:24.884Z,101389.53
2022-12-19T18:54:56.709Z,101386.91
2022-12-19T18:57:28.216Z,101387.06
2022-12-19T19:00:00.111Z,101384.09
2022-12-19T19:02:32.134Z,101382.69
2022-12-19T19:05:04.532Z,101379.56
2022-12-19T19:07:36.067Z,101363.91
2022-12-19T19:10:07.971Z,101362.25
2022-12-19T19:12:39.504Z,101357.97
2022-12-19T19:15:11.409Z,101354.19
2022-12-19T19:17:42.921Z,101349.75
2022-12-19T19:20:14.760Z,101348.94
2022-12-19T19:22:46.300Z,101346.94
2022-12-19T19:25:18.171Z,101352.22
2022-12-19T19:27:50.230Z,101348.13
2022-12-19T19:30:21.730Z,101341.03
2022-12-19T19:32:53.242Z,101336.91
2022-12-19T19:35:27.448Z,101339.72
2022-12-19T19:37:58.998Z,101336.09
2022-12-19T19:40:31.036Z,101339.06
2022-12-19T19:43:02.608Z,101341.22
2022-12-19T19:45:41.202Z,101341.03
2022-12-19T19:48:14.687Z,101343.84
2022-12-19T19:50:46.559Z,101350.94
2022-12-19T19:53:18.118Z,101347.16
2022-12-19T19:55:50.051Z,101347.31
2022-12-19T19:58:21.653Z,101347.97
2022-12-19T20:00:53.600Z,101349.94
2022-12-19T20:03:25.278Z,101341.69
2022-12-19T20:05:57.316Z,101338.06
2022-12-19T20:08:33.679Z,101333.09
2022-12-19T20:11:10.774Z,101333.94
2022-12-19T20:13:42.386Z,101327.84
2022-12-19T20:16:16.106Z,101327.84
2022-12-19T20:18:47.717Z,101327.84
2022-12-19T20:21:20.095Z,101323.88
2022-12-19T20:23:51.645Z,101322.06
2022-12-19T20:26:23.652Z,101315.81
2022-12-19T20:28:55.161Z,101316.78
2022-12-19T20:31:26.782Z,101317.06
2022-12-19T20:33:58.381Z,101319.19
2022-12-19T20:36:30.031Z,101307.69
2022-12-19T20:39:01.827Z,101301.91
2022-12-19T20:41:33.709Z,101303.69
2022-12-19T20:44:05.501Z,101315.41
2022-12-19T20:46:37.065Z,101314.91
2022-12-19T20:49:08.615Z,101308.97
2022-12-19T20:51:40.187Z,101310.13
2022-12-19T20:54:12.952Z,101311.78
2022-12-19T20:56:44.745Z,101308.16
2022-12-19T20:59:16.688Z,101312.75
2022-12-19T21:01:48.354Z,101305.84
2022-12-19T21:04:20.407Z,101312.91
2022-12-19T21:06:52.096Z,101314.72
2022-12-19T21:09:23.952Z,101317.19
2022-12-19T21:11:55.525Z,101321.97
2022-12-19T21:14:27.383Z,101322.59
2022-12-19T21:16:59.024Z,101318.47
2022-12-19T21:19:30.891Z,101318.63
2022-12-19T21:22:02.670Z,101314.19
2022-12-19T21:24:34.407Z,101311.03
2022-12-19T21:27:05.967Z,101324.38
2022-12-19T21:29:38.004Z,101326.31
2022-12-19T21:32:15.061Z,101327.97
2022-12-19T21:34:50.644Z,101330.78
2022-12-19T21:37:24.154Z,101330.78
2022-12-19T21:39:56.025Z,101336.19
2022-12-19T21:42:27.517Z,101317.75
2022-12-19T21:44:59.387Z,101311.50
2022-12-19T21:47:30.943Z,101312.97
2022-12-19T21:50:02.719Z,101309.63
2022-12-19T21:52:34.260Z,101330.53
2022-12-19T21:55:06.120Z,101327.38
2022-12-19T21:57:37.616Z,101326.94
2022-12-19T22:00:09.476Z,101330.25
2022-12-19T22:02:55.365Z,101343.44
2022-12-19T22:05:32.853Z,101333.88
2022-12-19T22:08:04.360Z,101323.84
2022-12-19T22:10:35.886Z,101318.59
2022-12-19T22:13:07.392Z,101308.56
2022-12-19T22:15:38.925Z,101314.19
2022-12-19T22:18:11.220Z,101309.88
2022-12-19T22:20:43.185Z,101323.72
2022-12-19T22:23:14.697Z,101334.94
2022-12-19T22:25:46.475Z,101315.34
2022-12-19T22:28:17.987Z,101318.16
2022-12-19T22:30:49.772Z,101320.16
2022-12-19T22:33:21.283Z,101312.41
2022-12-19T22:35:53.226Z,101308.31
2022-12-19T22:38:24.748Z,101316.38
2022-12-19T22:40:56.774Z,101312.09
2022-12-19T22:43:29.912Z,101308.94
2022-12-19T22:46:01.801Z,101296.75
2022-12-19T22:48:33.328Z,101288.38
2022-12-19T22:51:05.024Z,101289.50
2022-12-19T22:53:36.546Z,101290.19
2022-12-19T22:56:08.451Z,101292.81
2022-12-19T22:58:40.035Z,101281.59
2022-12-19T23:01:11.853Z,101276.69
2022-12-19T23:03:43.411Z,101281.13
2022-12-19T23:06:15.390Z,101278.50
2022-12-19T23:08:46.914Z,101295.28
2022-12-19T23:11:18.453Z,101287.22
2022-12-19T23:13:49.976Z,101284.91
2022-12-19T23:16:21.858Z,101289.03
2022-12-19T23:18:53.422Z,101284.75
2022-12-19T23:21:25.500Z,101282.28
2022-12-19T23:23:57.111Z,101289.53
2022-12-19T23:26:29.037Z,101282.63
2022-12-19T23:29:00.586Z,101276.38
2022-12-19T23:31:32.519Z,101282.47
2022-12-19T23:34:04.095Z,101281.97
2022-12-19T23:37:09.798Z,101287.13
2022-12-19T23:39:27.523Z,101291.25
2022-12-19T23:41:59.361Z,101289.75
2022-12-19T23:44:31.153Z,101281.53
2022-12-19T23:47:04.180Z,101278.75
2022-12-19T23:49:35.946Z,101280.72
2022-12-19T23:52:07.772Z,101276.78
2022-12-19T23:54:39.270Z,101275.44
2022-12-19T23:57:11.412Z,101264.56
2022-12-19T23:59:43.450Z,101275.94
